Time;durP1;ratioP1;P1;durP2;ratioP2;P2;SDS_P1;SDS_P2;PMS_P1;PMS_P2;Temp;Humidity;BMP_temperature;BMP_pressure;BME280_temperature;BME280_humidity;BME280_pressure;Samples;Min_cycle;Max_cycle;Signal;HPM_P1;HPM_P2
2022/04/17 00:03:56;;;;;;;4.40;3.37;;;10.20;79.50;;;;;;10386352;28;20248;-79
2022/04/17 00:08:58;;;;;;;3.57;3.27;;;10.20;79.70;;;;;;10393086;28;20296;-80
2022/04/17 00:14:02;;;;;;;7.60;3.60;;;10.20;80.90;;;;;;10394301;28;20255;-80
2022/04/17 00:19:04;;;;;;;3.73;3.43;;;10.10;80.40;;;;;;10415929;28;20642;-80
2022/04/17 00:24:06;;;;;;;3.83;3.50;;;10.10;79.20;;;;;;10416649;28;20710;-80
2022/04/17 00:29:09;;;;;;;3.73;3.53;;;9.90;80.40;;;;;;10408754;28;20264;-79
2022/04/17 00:34:11;;;;;;;3.60;3.40;;;9.80;81.30;;;;;;10429117;28;20222;-79
2022/04/17 00:39:13;;;;;;;4.10;3.67;;;9.60;81.20;;;;;;10434664;28;20285;-79
2022/04/17 00:44:17;;;;;;;3.70;3.40;;;9.50;85.60;;;;;;10422669;28;20713;-79
2022/04/17 00:49:19;;;;;;;3.73;3.43;;;9.30;83.40;;;;;;10422968;28;20248;-80
2022/04/17 00:54:25;;;;;;;3.87;3.40;;;9.20;85.10;;;;;;10429970;28;20245;-80
2022/04/17 00:59:29;;;;;;;4.90;3.20;;;9.20;85.30;;;;;;10423130;28;20727;-80
2022/04/17 01:04:31;;;;;;;5.87;3.50;;;9.10;86.00;;;;;;10416690;28;20256;-80
2022/04/17 01:09:35;;;;;;;3.70;3.50;;;9.00;86.20;;;;;;10386863;28;20676;-80
2022/04/17 01:14:41;;;;;;;4.30;3.90;;;9.00;82.40;;;;;;10387747;28;20229;-81
2022/04/17 01:19:43;;;;;;;3.70;3.40;;;8.90;83.20;;;;;;10421692;28;20208;-80
2022/04/17 01:30:07;;;;;;;4.93;4.40;;;8.70;82.80;;;;;;10420508;28;20352;-80
2022/04/17 01:35:09;;;;;;;4.10;3.70;;;8.60;85.30;;;;;;10400557;28;20678;-81
2022/04/17 01:40:13;;;;;;;4.03;3.63;;;8.60;86.50;;;;;;10417699;28;20620;-79
2022/04/17 01:45:15;;;;;;;4.23;3.93;;;8.50;83.40;;;;;;10400693;28;20780;-79
2022/04/17 01:50:17;;;;;;;4.30;3.50;;;8.40;84.70;;;;;;10400052;28;20667;-79
2022/04/17 01:55:21;;;;;;;4.87;3.90;;;8.30;87.10;;;;;;10418210;28;20636;-79
2022/04/17 02:00:24;;;;;;;4.00;3.70;;;8.30;85.80;;;;;;10366948;28;20665;-79
2022/04/17 02:05:27;;;;;;;3.83;3.63;;;8.30;86.60;;;;;;10401193;28;20221;-79
2022/04/17 02:10:30;;;;;;;4.23;3.93;;;8.20;86.80;;;;;;10406713;28;20307;-79
2022/04/17 02:15:33;;;;;;;4.37;4.07;;;8.20;85.50;;;;;;10422993;28;20273;-79
2022/04/17 02:20:35;;;;;;;4.10;3.80;;;8.10;83.90;;;;;;10422588;28;20190;-80
2022/04/17 02:25:38;;;;;;;4.70;4.30;;;8.00;84.90;;;;;;10420091;28;20560;-80
2022/04/17 02:30:41;;;;;;;5.50;5.00;;;7.90;86.40;;;;;;10420470;28;20649;-81
2022/04/17 02:35:43;;;;;;;4.23;3.93;;;7.90;86.10;;;;;;10431574;28;20198;-79
2022/04/17 02:40:47;;;;;;;4.97;4.57;;;7.90;87.00;;;;;;10422864;28;20218;-78
2022/04/17 02:45:52;;;;;;;5.60;5.00;;;7.80;86.00;;;;;;10399976;28;20233;-78
2022/04/17 02:50:54;;;;;;;5.13;4.83;;;7.80;88.20;;;;;;10398631;28;20233;-79
2022/04/17 02:55:58;;;;;;;5.27;4.80;;;7.70;87.80;;;;;;10418025;28;20260;-82
2022/04/17 03:06:19;;;;;;;6.00;5.40;;;7.70;85.00;;;;;;10400275;28;20197;-80
2022/04/17 03:11:23;;;;;;;5.37;4.97;;;7.60;87.60;;;;;;10418243;28;20252;-81
2022/04/17 03:16:25;;;;;;;5.40;5.00;;;7.60;86.60;;;;;;10422486;28;20228;-79
2022/04/17 03:21:27;;;;;;;5.60;5.13;;;7.50;88.90;;;;;;10397802;28;20221;-80
2022/04/17 03:26:30;;;;;;;5.57;5.07;;;7.50;87.10;;;;;;10417869;28;20202;-80
2022/04/17 03:31:32;;;;;;;7.23;5.20;;;7.40;88.50;;;;;;10418196;28;20292;-79
2022/04/17 03:36:35;;;;;;;6.73;5.00;;;7.40;87.10;;;;;;10395999;28;20228;-79
2022/04/17 03:41:38;;;;;;;5.50;5.10;;;7.30;87.70;;;;;;10412193;28;20218;-79
2022/04/17 03:46:41;;;;;;;5.07;4.77;;;7.30;87.10;;;;;;10394435;28;20206;-79
2022/04/17 03:51:43;;;;;;;5.80;5.40;;;7.20;86.70;;;;;;10418520;28;20745;-80
2022/04/17 03:56:47;;;;;;;5.33;4.93;;;7.20;88.40;;;;;;10377665;28;20198;-79
2022/04/17 04:01:51;;;;;;;6.90;5.60;;;7.10;88.80;;;;;;10402730;22;20222;-85
2022/04/17 04:06:54;;;;;;;6.20;5.70;;;7.10;90.00;;;;;;10396056;28;20198;-84
2022/04/17 04:11:58;;;;;;;5.90;5.50;;;7.00;90.10;;;;;;10316491;28;20650;-85
2022/04/17 04:17:00;;;;;;;5.60;5.20;;;7.00;89.30;;;;;;10396683;28;20673;-84
2022/04/17 04:22:03;;;;;;;6.07;5.60;;;7.10;89.20;;;;;;10372421;28;20242;-85
2022/04/17 04:32:26;;;;;;;8.77;6.80;;;7.00;87.60;;;;;;10330730;28;20222;-84
2022/04/17 04:37:28;;;;;;;8.17;7.47;;;6.90;89.70;;;;;;10335522;28;20250;-84
2022/04/17 04:42:31;;;;;;;7.33;6.73;;;6.90;89.30;;;;;;10315372;28;20219;-84
2022/04/17 04:47:34;;;;;;;8.70;7.80;;;6.80;88.60;;;;;;10412367;28;20242;-84
2022/04/17 04:52:37;;;;;;;7.00;5.97;;;6.80;89.40;;;;;;10372703;28;20226;-84
2022/04/17 04:57:40;;;;;;;6.00;5.60;;;6.80;90.20;;;;;;10412753;28;20852;-84
2022/04/17 05:02:42;;;;;;;5.60;5.20;;;6.80;89.20;;;;;;10375420;28;20222;-85
2022/04/17 05:07:44;;;;;;;5.60;5.20;;;6.90;86.50;;;;;;10373873;28;20207;-83
2022/04/17 05:12:48;;;;;;;4.80;4.50;;;6.80;89.60;;;;;;10378042;28;20249;-84
2022/04/17 05:17:50;;;;;;;5.90;5.43;;;6.70;89.00;;;;;;10406521;28;20206;-84
2022/04/17 05:22:56;;;;;;;5.57;5.07;;;6.80;89.00;;;;;;10367984;28;20221;-84
2022/04/17 05:28:00;;;;;;;5.60;5.20;;;6.80;89.40;;;;;;10366158;28;20202;-84
2022/04/17 05:33:02;;;;;;;5.60;5.13;;;6.80;90.80;;;;;;10418933;28;20228;-84
2022/04/17 05:38:05;;;;;;;5.23;4.73;;;6.80;89.80;;;;;;10371752;28;20203;-83
2022/04/17 05:43:09;;;;;;;4.90;4.50;;;6.80;90.90;;;;;;10420004;28;20313;-83
2022/04/17 05:48:11;;;;;;;6.00;5.60;;;6.90;90.90;;;;;;10368094;28;20286;-83
2022/04/17 05:53:18;;;;;;;5.60;5.10;;;7.00;90.50;;;;;;10403056;28;20218;-84
2022/04/17 05:58:22;;;;;;;5.20;4.77;;;7.10;91.10;;;;;;10384182;28;20285;-84
2022/04/17 06:03:25;;;;;;;5.53;4.93;;;7.20;90.90;;;;;;10401473;28;20312;-83
2022/04/17 06:08:28;;;;;;;6.20;5.70;;;7.30;90.80;;;;;;10369772;28;20650;-83
2022/04/17 06:13:31;;;;;;;4.97;4.53;;;7.50;90.90;;;;;;10419081;28;20218;-84
2022/04/17 06:18:34;;;;;;;8.00;4.97;;;7.70;90.90;;;;;;10362046;28;20576;-85
2022/04/17 06:23:36;;;;;;;5.27;4.77;;;7.90;90.10;;;;;;10364380;28;20219;-84
2022/04/17 06:28:40;;;;;;;5.00;4.67;;;8.00;90.10;;;;;;10363956;28;20293;-84
2022/04/17 06:33:42;;;;;;;5.33;4.83;;;8.20;89.90;;;;;;10358946;28;20237;-84
2022/04/17 06:38:44;;;;;;;4.60;4.20;;;8.40;90.20;;;;;;10378573;28;20206;-84
2022/04/17 06:43:48;;;;;;;4.53;4.13;;;8.50;87.60;;;;;;10404203;28;20214;-83
2022/04/17 06:48:50;;;;;;;4.33;4.03;;;8.60;89.20;;;;;;10378362;28;20621;-83
2022/04/17 06:53:54;;;;;;;4.73;4.23;;;8.70;89.10;;;;;;10356436;28;20599;-84
2022/04/17 06:58:58;;;;;;;4.40;4.00;;;8.90;87.50;;;;;;10407278;28;20200;-84
2022/04/17 07:04:00;;;;;;;4.63;4.33;;;9.00;87.10;;;;;;10362189;28;20229;-83
2022/04/17 07:09:02;;;;;;;3.50;3.30;;;9.20;88.30;;;;;;10372249;28;20233;-84
2022/04/17 07:14:06;;;;;;;3.93;3.63;;;9.30;87.80;;;;;;10381212;28;20265;-83
2022/04/17 07:19:08;;;;;;;3.83;3.47;;;9.50;82.00;;;;;;10358957;28;20289;-83
2022/04/17 07:24:10;;;;;;;4.27;3.87;;;9.70;79.60;;;;;;10387608;28;20297;-84
2022/04/17 07:29:14;;;;;;;3.73;3.43;;;9.70;83.30;;;;;;10363084;28;20194;-84
2022/04/17 07:34:18;;;;;;;4.00;3.70;;;9.90;78.10;;;;;;10404083;28;20221;-84
2022/04/17 07:39:22;;;;;;;4.87;3.67;;;10.00;76.70;;;;;;10365585;28;20223;-84
2022/04/17 07:44:29;;;;;;;3.97;3.53;;;10.20;69.70;;;;;;10399728;28;20313;-84
2022/04/17 07:49:31;;;;;;;3.40;3.20;;;10.50;68.70;;;;;;10380656;28;20198;-83
2022/04/17 07:54:34;;;;;;;3.50;3.30;;;10.80;70.00;;;;;;10405335;28;20688;-84
2022/04/17 07:59:37;;;;;;;3.57;3.37;;;11.20;66.80;;;;;;10386224;28;20252;-86
2022/04/17 08:04:41;;;;;;;3.37;3.17;;;11.60;66.00;;;;;;10407896;28;20225;-83
2022/04/17 08:09:43;;;;;;;3.43;3.13;;;11.90;65.30;;;;;;10385568;28;20722;-83
2022/04/17 08:14:46;;;;;;;3.77;3.43;;;12.30;63.90;;;;;;10407156;28;20218;-83
2022/04/17 08:19:49;;;;;;;3.73;3.37;;;12.70;64.70;;;;;;10368549;28;20224;-82
2022/04/17 08:24:51;;;;;;;3.63;3.20;;;13.00;61.70;;;;;;10405721;28;20245;-83
2022/04/17 08:29:54;;;;;;;3.20;3.00;;;13.30;63.30;;;;;;10386709;28;20217;-84
2022/04/17 08:34:57;;;;;;;3.90;3.17;;;13.50;63.00;;;;;;10380505;28;20233;-83
2022/04/17 08:39:59;;;;;;;3.63;3.33;;;13.80;60.00;;;;;;10380141;28;20202;-83
2022/04/17 08:45:03;;;;;;;3.50;3.20;;;13.90;59.90;;;;;;10403445;28;20214;-84
2022/04/17 08:50:08;;;;;;;2.80;2.60;;;14.20;62.80;;;;;;10394645;28;20586;-84
2022/04/17 08:55:10;;;;;;;3.40;3.10;;;14.50;59.20;;;;;;10411728;28;20226;-87
2022/04/17 09:00:18;;;;;;;3.80;2.90;;;14.60;57.00;;;;;;10379254;28;20290;-83
2022/04/17 09:05:21;;;;;;;3.30;3.10;;;14.50;56.20;;;;;;10407547;28;20237;-85
2022/04/17 09:10:25;;;;;;;3.57;3.30;;;14.50;55.20;;;;;;10361172;28;20679;-83
2022/04/17 09:15:31;;;;;;;3.33;3.03;;;14.50;55.90;;;;;;10404513;28;20248;-83
2022/04/17 09:20:34;;;;;;;3.53;3.20;;;14.60;57.90;;;;;;10363822;28;20198;-84
2022/04/17 09:25:37;;;;;;;2.93;2.77;;;14.90;54.70;;;;;;10403893;28;20634;-83
2022/04/17 09:30:46;;;;;;;3.60;3.30;;;15.00;56.20;;;;;;10371816;28;20206;-83
2022/04/17 09:35:55;;;;;;;3.30;3.00;;;15.20;54.10;;;;;;10364572;28;20218;-83
2022/04/17 09:41:05;;;;;;;3.13;2.97;;;15.30;55.40;;;;;;10388554;28;20197;-84
2022/04/17 09:46:09;;;;;;;2.97;2.77;;;15.50;55.20;;;;;;10363697;28;20760;-84
2022/04/17 09:51:22;;;;;;;2.40;2.30;;;15.80;55.20;;;;;;10358744;28;20230;-84
2022/04/17 09:56:32;;;;;;;3.53;3.20;;;16.10;53.50;;;;;;10354618;28;20212;-83
2022/04/17 10:06:46;;;;;;;3.30;3.00;;;16.50;51.40;;;;;;10432895;28;20252;-80
2022/04/17 10:11:51;;;;;;;2.87;2.67;;;16.70;54.00;;;;;;10417721;28;20264;-79
2022/04/17 10:16:56;;;;;;;2.77;2.67;;;16.50;52.10;;;;;;10415282;28;20206;-78
2022/04/17 10:22:03;;;;;;;3.13;2.93;;;16.00;53.80;;;;;;10420636;28;20210;-79
2022/04/17 10:27:07;;;;;;;2.83;2.63;;;15.70;54.10;;;;;;10415285;28;20273;-80
2022/04/17 10:32:26;;;;;;;2.80;2.40;;;15.50;55.70;;;;;;10414653;28;20218;-81
2022/04/17 10:38:08;;;;;;;3.30;2.37;;;15.30;53.10;;;;;;10410968;28;20257;-80
2022/04/17 10:43:10;;;;;;;2.60;2.40;;;15.10;57.10;;;;;;10406669;28;20296;-82
2022/04/17 10:48:13;;;;;;;2.63;2.43;;;14.90;57.10;;;;;;10416339;28;20237;-81
2022/04/17 10:53:25;;;;;;;3.00;2.80;;;14.90;59.60;;;;;;10419214;28;20614;-79
2022/04/17 10:58:35;;;;;;;2.93;2.70;;;14.80;59.20;;;;;;10413307;28;20208;-81
2022/04/17 11:03:37;;;;;;;2.90;2.70;;;14.80;56.00;;;;;;10410901;28;20289;-80
2022/04/17 11:08:56;;;;;;;2.70;2.60;;;14.70;55.60;;;;;;10418624;28;20289;-81
2022/04/17 11:14:12;;;;;;;3.23;2.83;;;14.70;54.00;;;;;;10376999;28;20229;-80
2022/04/17 11:19:15;;;;;;;3.20;2.70;;;14.60;56.60;;;;;;10419200;28;20618;-81
2022/04/17 11:24:20;;;;;;;2.27;2.17;;;14.50;54.70;;;;;;10428077;28;20263;-79
2022/04/17 11:29:34;;;;;;;2.33;2.23;;;14.50;54.50;;;;;;10421458;28;20221;-81
2022/04/17 11:34:43;;;;;;;3.07;2.87;;;14.50;56.80;;;;;;10421325;28;20217;-80
2022/04/17 11:39:47;;;;;;;2.80;2.60;;;14.50;52.90;;;;;;10421391;28;20684;-81
2022/04/17 11:44:50;;;;;;;2.87;2.67;;;14.50;54.70;;;;;;10433734;28;20217;-81
2022/04/17 11:49:52;;;;;;;2.40;2.30;;;14.50;59.00;;;;;;10418427;28;20248;-81
2022/04/17 11:55:01;;;;;;;3.17;2.97;;;14.60;56.70;;;;;;10410289;28;20218;-81
2022/04/17 12:00:05;;;;;;;4.03;2.57;;;14.60;53.30;;;;;;10414469;28;20615;-81
2022/04/17 12:05:12;;;;;;;2.33;2.23;;;14.60;55.90;;;;;;10424926;28;20222;-81
2022/04/17 12:10:16;;;;;;;2.80;2.60;;;14.70;55.30;;;;;;10409489;28;20204;-81
2022/04/17 12:15:18;;;;;;;2.60;2.40;;;14.80;50.70;;;;;;10431849;28;20233;-80
2022/04/17 12:20:20;;;;;;;2.30;2.20;;;14.80;53.20;;;;;;10462546;28;20323;-80
2022/04/17 12:25:25;;;;;;;2.70;2.50;;;15.00;54.00;;;;;;10447412;28;20225;-81
2022/04/17 12:30:29;;;;;;;2.73;2.53;;;15.00;55.50;;;;;;10416275;28;20214;-81
2022/04/17 12:35:33;;;;;;;2.63;2.53;;;15.10;54.00;;;;;;10434715;28;20313;-81
2022/04/17 12:40:43;;;;;;;3.00;2.80;;;15.10;54.80;;;;;;10426992;28;20256;-80
2022/04/17 12:45:56;;;;;;;2.40;2.20;;;15.00;57.20;;;;;;10423321;28;20686;-81
2022/04/17 12:51:00;;;;;;;3.63;2.60;;;15.00;57.10;;;;;;10419383;28;20708;-83
2022/04/17 12:56:04;;;;;;;2.87;2.70;;;15.00;53.00;;;;;;10421916;28;20272;-82
2022/04/17 13:01:06;;;;;;;2.60;2.40;;;14.90;54.80;;;;;;10416492;28;20256;-82
2022/04/17 13:06:09;;;;;;;2.80;2.40;;;14.90;54.00;;;;;;10414969;28;20301;-83
2022/04/17 13:11:21;;;;;;;2.60;2.40;;;14.80;55.40;;;;;;10416116;28;20691;-83
2022/04/17 13:16:24;;;;;;;2.80;2.10;;;14.90;53.60;;;;;;10418189;28;20220;-81
2022/04/17 13:21:26;;;;;;;2.20;2.10;;;14.90;54.00;;;;;;10418971;28;20221;-81
2022/04/17 13:26:29;;;;;;;2.10;2.00;;;14.90;56.60;;;;;;10420289;28;20250;-82
2022/04/17 13:31:31;;;;;;;2.37;2.17;;;14.90;51.50;;;;;;10410244;28;20292;-82
2022/04/17 13:36:34;;;;;;;2.00;1.90;;;14.90;51.10;;;;;;10400163;28;20286;-81
2022/04/17 13:41:37;;;;;;;2.30;2.20;;;15.00;49.60;;;;;;10418195;28;20209;-83
2022/04/17 13:46:39;;;;;;;2.37;2.17;;;15.00;51.70;;;;;;10443721;28;20205;-80
2022/04/17 13:51:41;;;;;;;3.90;2.80;;;15.00;55.00;;;;;;10429802;28;20222;-81
2022/04/17 13:56:45;;;;;;;2.60;2.40;;;15.00;52.20;;;;;;10416577;28;20225;-81
2022/04/17 14:01:47;;;;;;;3.00;2.30;;;15.10;52.90;;;;;;10437441;28;20636;-81
2022/04/17 14:06:50;;;;;;;2.80;2.60;;;15.20;53.00;;;;;;10413160;28;20208;-81
2022/04/17 14:11:53;;;;;;;2.50;2.40;;;15.20;52.40;;;;;;10411792;28;20287;-81
2022/04/17 14:16:56;;;;;;;2.60;2.40;;;15.30;50.70;;;;;;10414424;28;20603;-81
2022/04/17 14:21:58;;;;;;;1.97;1.87;;;15.30;51.10;;;;;;10435801;28;20697;-82
2022/04/17 14:27:01;;;;;;;2.60;2.40;;;15.50;50.80;;;;;;10408413;28;20208;-82
2022/04/17 14:32:04;;;;;;;2.00;1.90;;;15.40;49.60;;;;;;10410683;28;20230;-83
2022/04/17 14:37:07;;;;;;;2.93;2.73;;;15.50;50.90;;;;;;10406092;28;20228;-83
2022/04/17 14:42:11;;;;;;;2.63;2.43;;;15.50;50.30;;;;;;10393595;28;20218;-82
2022/04/17 14:47:13;;;;;;;2.03;1.93;;;15.50;51.80;;;;;;10406533;28;20673;-80
2022/04/17 14:52:16;;;;;;;2.10;2.00;;;15.50;52.40;;;;;;10385875;28;20297;-83
2022/04/17 14:57:20;;;;;;;2.40;2.20;;;15.60;50.00;;;;;;10413169;28;20515;-81
2022/04/17 15:02:22;;;;;;;2.27;2.10;;;15.60;48.00;;;;;;10387791;28;20233;-79
2022/04/17 15:07:24;;;;;;;5.87;2.50;;;15.60;50.10;;;;;;10407421;28;20216;-79
2022/04/17 15:12:27;;;;;;;2.37;2.20;;;15.60;54.70;;;;;;10427444;28;20331;-81
2022/04/17 15:17:30;;;;;;;2.33;2.23;;;15.60;51.00;;;;;;10415296;28;20263;-81
2022/04/17 15:22:32;;;;;;;2.33;2.20;;;15.50;55.90;;;;;;10416023;28;20206;-80
2022/04/17 15:27:36;;;;;;;2.47;2.37;;;15.50;60.70;;;;;;10418088;28;20233;-82
2022/04/17 15:32:38;;;;;;;2.23;2.13;;;15.60;55.50;;;;;;10409645;28;20221;-81
2022/04/17 15:37:40;;;;;;;2.20;2.07;;;15.50;57.00;;;;;;10407664;28;20205;-80
2022/04/17 15:42:44;;;;;;;2.20;2.10;;;15.70;52.30;;;;;;10416865;28;20633;-80
2022/04/17 15:47:57;;;;;;;2.10;2.00;;;15.80;53.00;;;;;;10413388;28;20204;-79
2022/04/17 15:53:04;;;;;;;2.10;2.00;;;15.90;53.90;;;;;;10449731;28;20248;-82
2022/04/17 15:58:07;;;;;;;2.10;2.00;;;15.90;52.50;;;;;;10414301;28;20237;-81
2022/04/17 16:03:10;;;;;;;2.07;1.97;;;15.80;53.50;;;;;;10407832;28;20316;-81
2022/04/17 16:08:12;;;;;;;2.30;2.20;;;15.80;49.90;;;;;;10405852;28;20217;-81
2022/04/17 16:13:15;;;;;;;2.53;2.30;;;15.70;52.80;;;;;;10410767;28;20222;-81
2022/04/17 16:18:17;;;;;;;2.97;2.07;;;15.60;57.30;;;;;;10407826;28;20205;-80
2022/04/17 16:23:19;;;;;;;2.50;2.30;;;15.60;55.70;;;;;;10411347;28;20226;-81
2022/04/17 16:28:23;;;;;;;2.10;2.00;;;15.60;56.90;;;;;;10428109;28;20219;-81
2022/04/17 16:33:25;;;;;;;4.03;2.30;;;15.50;56.80;;;;;;10438011;28;20268;-81
2022/04/17 16:38:27;;;;;;;2.30;2.10;;;15.50;55.60;;;;;;10412589;28;20264;-81
2022/04/17 16:43:31;;;;;;;2.67;2.47;;;15.40;58.40;;;;;;10409619;28;20214;-81
2022/04/17 16:48:33;;;;;;;3.60;3.30;;;15.40;54.50;;;;;;10409048;28;20206;-81
2022/04/17 16:53:35;;;;;;;3.80;2.20;;;15.40;54.20;;;;;;10404206;28;20279;-81
2022/04/17 17:04:07;;;;;;;2.70;2.50;;;15.30;55.60;;;;;;10355355;28;20547;-81
2022/04/17 17:09:10;;;;;;;3.10;2.80;;;15.30;61.10;;;;;;10415172;28;20198;-81
2022/04/17 17:14:14;;;;;;;2.33;2.10;;;15.20;61.20;;;;;;10390894;28;20698;-80
2022/04/17 17:19:16;;;;;;;3.20;2.90;;;15.10;60.70;;;;;;10409384;28;20216;-80
2022/04/17 17:24:19;;;;;;;3.10;2.80;;;15.00;61.60;;;;;;10412234;28;20214;-81
2022/04/17 17:29:22;;;;;;;3.00;2.80;;;14.90;64.80;;;;;;10407256;28;20202;-81
2022/04/17 17:34:24;;;;;;;2.80;2.60;;;14.90;68.10;;;;;;10424205;28;20340;-80
2022/04/17 17:39:28;;;;;;;2.83;2.63;;;14.80;70.50;;;;;;10410257;28;20229;-81
2022/04/17 17:44:34;;;;;;;2.30;2.20;;;14.70;72.00;;;;;;10410457;28;20214;-81
2022/04/17 17:49:36;;;;;;;2.33;2.23;;;14.60;67.50;;;;;;10416430;28;20198;-81
2022/04/17 17:54:39;;;;;;;2.50;2.30;;;14.60;70.20;;;;;;10394512;28;20261;-81
2022/04/17 17:59:43;;;;;;;2.53;2.33;;;14.50;69.70;;;;;;10410832;28;20206;-81
2022/04/17 18:04:46;;;;;;;2.47;2.30;;;14.50;73.30;;;;;;10416257;28;20717;-80
2022/04/17 18:15:11;;;;;;;3.70;2.80;;;14.30;66.40;;;;;;10406272;28;20233;-80
2022/04/17 18:20:13;;;;;;;3.20;2.93;;;14.20;71.60;;;;;;10407202;28;20210;-80
2022/04/17 18:25:16;;;;;;;2.90;2.70;;;14.10;71.90;;;;;;10413576;28;20822;-80
2022/04/17 18:30:19;;;;;;;5.43;2.87;;;14.10;74.00;;;;;;10400226;28;20206;-80
2022/04/17 18:35:21;;;;;;;2.90;2.80;;;14.00;74.90;;;;;;10417111;28;20285;-80
2022/04/17 18:40:24;;;;;;;3.33;2.87;;;13.90;72.60;;;;;;10406822;28;20653;-82
2022/04/17 18:45:27;;;;;;;2.70;2.60;;;13.90;72.60;;;;;;10409211;28;20904;-80
2022/04/17 18:50:30;;;;;;;4.07;3.43;;;13.80;71.00;;;;;;10409708;28;20808;-81
2022/04/17 18:55:33;;;;;;;3.00;2.80;;;13.70;72.00;;;;;;10413403;28;20226;-80
2022/04/17 19:00:37;;;;;;;3.00;2.80;;;13.70;73.50;;;;;;10406934;28;20221;-80
2022/04/17 19:05:39;;;;;;;3.17;2.90;;;13.60;72.80;;;;;;10411918;28;20240;-80
2022/04/17 19:10:41;;;;;;;4.27;3.87;;;13.50;72.80;;;;;;10404614;28;20731;-81
2022/04/17 19:15:44;;;;;;;2.60;2.50;;;13.50;74.20;;;;;;10430101;28;20233;-80
2022/04/17 19:20:47;;;;;;;2.47;2.27;;;13.40;70.40;;;;;;10409892;28;20252;-81
2022/04/17 19:25:50;;;;;;;3.20;2.40;;;13.30;69.10;;;;;;10407848;28;20315;-80
2022/04/17 19:36:09;;;;;;;3.27;2.97;;;13.10;68.80;;;;;;10416267;28;20272;-80
2022/04/17 19:41:11;;;;;;;10.50;6.83;;;13.00;69.20;;;;;;10413805;28;20202;-80
2022/04/17 19:46:15;;;;;;;7.50;5.53;;;12.90;68.10;;;;;;10416922;28;20225;-80
2022/04/17 19:51:17;;;;;;;4.87;4.30;;;12.80;68.00;;;;;;10411252;28;20205;-80
2022/04/17 19:56:19;;;;;;;3.10;2.80;;;12.70;68.10;;;;;;10410180;28;20226;-80
2022/04/17 20:01:23;;;;;;;3.07;2.87;;;12.60;69.50;;;;;;10412169;28;20204;-80
2022/04/17 20:06:25;;;;;;;3.07;2.87;;;12.50;69.50;;;;;;10401125;28;20301;-80
2022/04/17 20:11:28;;;;;;;2.80;2.53;;;12.40;68.30;;;;;;10405960;28;20194;-80
2022/04/17 20:16:34;;;;;;;3.10;2.90;;;12.30;66.60;;;;;;10413790;28;20224;-80
2022/04/17 20:21:36;;;;;;;2.60;2.40;;;12.10;69.70;;;;;;10404359;28;20206;-80
2022/04/17 20:26:38;;;;;;;2.90;2.70;;;12.00;69.70;;;;;;10401299;28;20551;-80
2022/04/17 20:31:44;;;;;;;3.10;2.90;;;11.90;71.00;;;;;;10407522;28;20202;-80
2022/04/17 20:36:46;;;;;;;3.77;3.03;;;11.90;69.90;;;;;;10404418;28;20226;-80
2022/04/17 20:41:48;;;;;;;3.27;2.67;;;11.80;73.20;;;;;;10402676;28;20206;-80
2022/04/17 20:52:12;;;;;;;2.90;2.70;;;11.60;69.50;;;;;;10402638;28;20228;-81
2022/04/17 20:57:14;;;;;;;3.43;3.13;;;11.50;71.10;;;;;;10413493;28;20729;-79
2022/04/17 21:02:17;;;;;;;4.00;3.40;;;11.50;72.70;;;;;;10416011;28;20233;-79
2022/04/17 21:07:20;;;;;;;2.70;2.60;;;11.40;73.10;;;;;;10431584;28;20658;-79
2022/04/17 21:12:22;;;;;;;3.03;2.83;;;11.40;71.20;;;;;;10420272;28;20222;-77
2022/04/17 21:17:26;;;;;;;3.17;2.97;;;11.30;73.00;;;;;;10408515;28;20253;-79
2022/04/17 21:22:28;;;;;;;3.33;3.13;;;11.30;72.40;;;;;;10417408;28;20222;-78
2022/04/17 21:27:30;;;;;;;3.70;3.40;;;11.20;73.20;;;;;;10437336;28;20189;-79
2022/04/17 21:32:34;;;;;;;2.80;2.60;;;11.20;72.60;;;;;;10418264;28;20218;-79
2022/04/17 21:37:36;;;;;;;2.90;2.70;;;11.10;72.10;;;;;;10410400;28;20222;-80
2022/04/17 21:42:39;;;;;;;2.90;2.80;;;11.10;73.40;;;;;;10409011;28;20218;-79
2022/04/17 21:47:42;;;;;;;5.10;3.73;;;11.00;72.40;;;;;;10412068;28;20232;-80
2022/04/17 21:52:46;;;;;;;4.00;3.63;;;10.90;70.80;;;;;;10439939;28;20247;-79
2022/04/17 21:57:48;;;;;;;3.87;2.97;;;10.90;71.80;;;;;;10425110;28;20232;-79
2022/04/17 22:08:11;;;;;;;3.60;3.30;;;10.80;73.80;;;;;;10410684;28;20212;-81
2022/04/17 22:13:13;;;;;;;3.20;3.00;;;10.70;72.70;;;;;;10392517;28;20237;-80
2022/04/17 22:18:17;;;;;;;4.10;3.40;;;10.70;73.10;;;;;;10395609;28;20294;-81
2022/04/17 22:23:19;;;;;;;3.17;2.83;;;10.60;72.30;;;;;;10405552;28;20226;-80
2022/04/17 22:28:21;;;;;;;4.27;3.00;;;10.50;73.70;;;;;;10408941;28;20745;-78
2022/04/17 22:33:25;;;;;;;3.77;3.47;;;10.50;73.60;;;;;;10414579;28;20367;-81
2022/04/17 22:38:27;;;;;;;3.90;3.50;;;10.40;69.90;;;;;;10410220;28;20293;-81
2022/04/17 22:43:30;;;;;;;4.23;3.83;;;10.30;74.10;;;;;;10408499;28;20218;-77
2022/04/17 22:48:33;;;;;;;3.57;3.27;;;10.30;73.20;;;;;;10422989;28;20202;-79
2022/04/17 22:53:35;;;;;;;3.60;3.30;;;10.20;73.10;;;;;;10405770;28;20308;-79
2022/04/17 22:58:37;;;;;;;3.33;3.13;;;10.20;73.70;;;;;;10412702;28;21197;-79
2022/04/17 23:03:42;;;;;;;3.60;3.13;;;10.10;74.20;;;;;;10407309;28;20676;-79
2022/04/17 23:08:44;;;;;;;4.20;3.60;;;10.00;75.80;;;;;;10403173;28;20665;-79
2022/04/17 23:13:46;;;;;;;3.20;3.00;;;10.00;75.30;;;;;;10402633;28;20314;-79
2022/04/17 23:18:50;;;;;;;3.20;3.00;;;10.00;75.20;;;;;;10406513;28;20209;-79
2022/04/17 23:23:52;;;;;;;3.10;2.90;;;9.90;76.50;;;;;;10407159;28;20295;-79
2022/04/17 23:28:54;;;;;;;3.50;3.20;;;9.90;77.80;;;;;;10413356;28;20221;-78
2022/04/17 23:33:57;;;;;;;2.97;2.77;;;9.80;76.40;;;;;;10407826;28;20232;-78
2022/04/17 23:38:59;;;;;;;3.40;3.20;;;9.80;76.60;;;;;;10409405;28;20275;-79
2022/04/17 23:44:02;;;;;;;3.53;3.17;;;9.70;76.30;;;;;;10413855;28;20287;-79
2022/04/17 23:49:05;;;;;;;3.93;3.37;;;9.70;76.60;;;;;;10390460;28;20289;-79
2022/04/17 23:54:07;;;;;;;4.07;3.77;;;9.60;75.60;;;;;;10414456;28;20214;-79
2022/04/17 23:59:11;;;;;;;4.17;3.77;;;9.60;77.60;;;;;;10392336;28;20259;-79
